createdAt,value
2022-12-28T00:02:16.693Z,2.90
2022-12-28T00:04:44.130Z,3.03
2022-12-28T00:07:11.124Z,2.87
2022-12-28T00:09:38.108Z,2.30
2022-12-28T00:12:05.693Z,2.20
2022-12-28T00:14:32.721Z,2.37
2022-12-28T00:17:01.965Z,3.47
2022-12-28T00:19:29.249Z,2.43
2022-12-28T00:21:56.227Z,2.30
2022-12-28T00:24:25.359Z,2.90
2022-12-28T00:26:56.813Z,3.03
2022-12-28T00:29:23.786Z,2.43
2022-12-28T00:31:53.031Z,2.37
2022-12-28T00:34:20.098Z,2.20
2022-12-28T00:37:11.204Z,2.40
2022-12-28T00:39:41.625Z,1.83
2022-12-28T00:42:11.354Z,2.00
2022-12-28T00:44:38.738Z,2.00
2022-12-28T00:47:11.139Z,1.50
2022-12-28T00:49:37.989Z,1.47
2022-12-28T00:52:05.141Z,1.83
2022-12-28T00:54:34.179Z,1.60
2022-12-28T00:57:01.183Z,2.00
2022-12-28T00:59:28.154Z,1.80
2022-12-28T01:01:55.644Z,2.00
2022-12-28T01:04:22.870Z,1.60
2022-12-28T01:06:49.754Z,1.40
2022-12-28T01:09:18.871Z,1.40
2022-12-28T01:11:45.784Z,2.27
2022-12-28T01:14:12.907Z,2.00
2022-12-28T01:16:42.156Z,1.40
2022-12-28T01:19:22.613Z,1.67
2022-12-28T01:21:51.695Z,1.80
2022-12-28T01:24:21.286Z,1.83
2022-12-28T01:26:51.169Z,1.97
2022-12-28T01:29:21.559Z,1.53
2022-12-28T01:31:48.942Z,1.57
2022-12-28T01:34:16.231Z,2.00
2022-12-28T01:36:48.546Z,1.83
2022-12-28T01:39:18.907Z,1.90
2022-12-28T01:41:46.343Z,1.73
2022-12-28T01:44:13.856Z,1.80
2022-12-28T01:47:10.960Z,1.53
2022-12-28T01:50:07.117Z,1.30
2022-12-28T01:52:40.639Z,2.07
2022-12-28T01:55:14.262Z,1.80
2022-12-28T01:57:55.716Z,1.43
2022-12-28T02:00:23.244Z,1.63
2022-12-28T02:03:20.517Z,1.53
2022-12-28T02:05:51.669Z,2.00
2022-12-28T02:09:10.609Z,1.97
2022-12-28T02:11:41.640Z,1.83
2022-12-28T02:14:09.758Z,2.00
2022-12-28T02:16:39.318Z,1.70
2022-12-28T02:19:10.033Z,2.13
2022-12-28T02:21:43.151Z,1.50
2022-12-28T02:24:44.067Z,1.77
2022-12-28T02:27:32.352Z,1.67
2022-12-28T02:30:11.472Z,1.37
2022-12-28T02:32:56.514Z,1.77
2022-12-28T02:35:35.428Z,1.93
2022-12-28T02:38:14.584Z,2.03
2022-12-28T02:40:48.974Z,1.60
2022-12-28T02:43:18.804Z,1.73
2022-12-28T02:46:06.503Z,1.80
2022-12-28T02:49:05.528Z,1.73
2022-12-28T02:52:21.564Z,2.13
2022-12-28T02:55:28.990Z,1.90
2022-12-28T02:58:29.189Z,1.70
2022-12-28T03:01:11.227Z,1.90
2022-12-28T03:04:07.943Z,1.73
2022-12-28T03:07:09.545Z,1.57
2022-12-28T03:10:21.743Z,1.70
2022-12-28T03:13:01.496Z,1.50
2022-12-28T03:15:35.896Z,1.43
2022-12-28T03:18:31.906Z,1.63
2022-12-28T03:21:23.565Z,1.50
2022-12-28T03:24:11.783Z,1.73
2022-12-28T03:27:04.962Z,1.50
2022-12-28T03:30:01.098Z,1.60
2022-12-28T03:32:28.519Z,1.03
2022-12-28T03:34:57.999Z,1.70
2022-12-28T03:37:25.936Z,1.30
2022-12-28T03:40:12.326Z,1.60
2022-12-28T03:43:10.646Z,1.53
2022-12-28T03:45:57.965Z,2.30
2022-12-28T03:48:25.790Z,2.20
2022-12-28T03:50:54.039Z,1.70
2022-12-28T03:53:30.498Z,2.00
2022-12-28T03:56:22.363Z,1.73
2022-12-28T03:58:49.638Z,2.17
2022-12-28T04:01:16.969Z,1.73
2022-12-28T04:03:44.225Z,1.97
2022-12-28T04:06:20.674Z,1.67
2022-12-28T04:08:47.871Z,1.80
2022-12-28T04:11:17.071Z,1.30
2022-12-28T04:13:46.877Z,1.77
2022-12-28T04:16:14.899Z,1.50
2022-12-28T04:18:42.405Z,2.50
2022-12-28T04:21:12.997Z,2.00
2022-12-28T04:23:39.988Z,1.60
2022-12-28T04:26:14.226Z,1.70
2022-12-28T04:28:42.177Z,2.23
2022-12-28T04:31:13.367Z,1.50
2022-12-28T04:33:41.044Z,2.00
2022-12-28T04:36:14.930Z,2.07
2022-12-28T04:38:42.522Z,1.80
2022-12-28T04:41:13.923Z,1.93
2022-12-28T04:43:43.516Z,2.47
2022-12-28T04:46:18.362Z,1.50
2022-12-28T04:48:45.317Z,1.70
2022-12-28T04:51:27.264Z,1.40
2022-12-28T04:53:56.025Z,2.10
2022-12-28T04:56:24.685Z,2.00
2022-12-28T04:59:00.641Z,1.77
2022-12-28T05:01:27.975Z,2.17
2022-12-28T05:03:59.301Z,2.20
2022-12-28T05:06:27.733Z,2.33
2022-12-28T05:08:56.937Z,1.60
2022-12-28T05:11:27.934Z,2.10
2022-12-28T05:13:57.651Z,2.27
2022-12-28T05:16:27.026Z,2.87
2022-12-28T05:18:59.030Z,2.33
2022-12-28T05:21:28.675Z,2.33
2022-12-28T05:23:57.335Z,2.53
2022-12-28T05:26:27.699Z,2.37
2022-12-28T05:28:55.894Z,2.40
2022-12-28T05:31:24.095Z,2.27
2022-12-28T05:33:54.391Z,2.83
2022-12-28T05:36:27.161Z,2.50
2022-12-28T05:38:58.647Z,2.50
2022-12-28T05:41:29.659Z,2.77
2022-12-28T05:44:04.684Z,2.73
2022-12-28T05:46:34.860Z,2.23
2022-12-28T05:49:02.302Z,2.87
2022-12-28T05:51:32.299Z,2.40
2022-12-28T05:54:04.303Z,3.23
2022-12-28T05:56:34.296Z,3.27
2022-12-28T05:59:06.932Z,2.90
2022-12-28T06:01:37.708Z,3.07
2022-12-28T06:04:15.221Z,3.20
2022-12-28T06:06:45.079Z,2.83
2022-12-28T06:09:12.552Z,3.20
2022-12-28T06:11:40.241Z,3.23
2022-12-28T06:14:07.881Z,3.20
2022-12-28T06:16:41.075Z,2.90
2022-12-28T06:19:11.103Z,3.17
2022-12-28T06:21:40.394Z,4.10
2022-12-28T06:24:09.152Z,2.90
2022-12-28T06:26:38.775Z,3.10
2022-12-28T06:29:05.957Z,3.03
2022-12-28T06:31:39.796Z,3.47
2022-12-28T06:34:09.033Z,3.20
2022-12-28T06:36:43.260Z,3.87
2022-12-28T06:39:13.321Z,3.00
2022-12-28T06:41:41.756Z,3.30
2022-12-28T06:44:13.025Z,3.40
2022-12-28T06:46:40.582Z,3.27
2022-12-28T06:49:07.956Z,3.40
2022-12-28T06:51:40.687Z,3.63
2022-12-28T06:54:09.499Z,3.50
2022-12-28T06:56:38.982Z,3.30
2022-12-28T06:59:06.688Z,3.83
2022-12-28T07:01:39.591Z,3.47
2022-12-28T07:04:09.174Z,3.67
2022-12-28T07:06:39.925Z,3.20
2022-12-28T07:09:14.484Z,3.17
2022-12-28T07:11:42.726Z,2.70
2022-12-28T07:14:09.709Z,2.40
2022-12-28T07:19:02.802Z,2.97
2022-12-28T07:21:36.717Z,3.40
2022-12-28T07:24:05.339Z,2.43
2022-12-28T07:26:39.114Z,2.60
2022-12-28T07:29:08.395Z,2.77
2022-12-28T07:31:44.655Z,3.10
2022-12-28T07:34:16.434Z,3.00
2022-12-28T07:36:43.854Z,2.57
2022-12-28T07:39:15.816Z,2.10
2022-12-28T07:41:50.085Z,3.33
2022-12-28T07:44:19.036Z,2.20
2022-12-28T07:46:48.125Z,2.17
2022-12-28T07:49:15.095Z,2.80
2022-12-28T07:51:42.246Z,2.60
2022-12-28T07:54:09.286Z,2.50
2022-12-28T07:59:06.466Z,2.53
2022-12-28T08:01:39.697Z,2.37
2022-12-28T08:04:13.493Z,2.60
2022-12-28T08:06:46.558Z,2.80
2022-12-28T08:09:15.054Z,2.20
2022-12-28T08:11:44.749Z,2.40
2022-12-28T08:14:13.935Z,2.60
2022-12-28T08:16:47.320Z,1.80
2022-12-28T08:19:16.489Z,2.20
2022-12-28T08:21:47.357Z,2.27
2022-12-28T08:24:18.364Z,1.70
2022-12-28T08:26:53.425Z,1.93
2022-12-28T08:29:24.502Z,2.27
2022-12-28T08:31:53.897Z,2.50
2022-12-28T08:34:27.390Z,2.20
2022-12-28T08:36:56.227Z,2.20
2022-12-28T08:39:25.626Z,2.57
2022-12-28T08:41:54.817Z,2.60
2022-12-28T08:44:21.840Z,2.33
2022-12-28T08:46:50.992Z,3.00
2022-12-28T08:49:18.113Z,2.83
2022-12-28T08:51:51.142Z,2.30
2022-12-28T08:54:18.112Z,2.30
2022-12-28T08:56:46.253Z,2.93
2022-12-28T08:59:24.599Z,3.10
2022-12-28T09:01:51.643Z,3.23
2022-12-28T09:04:21.662Z,3.13
2022-12-28T09:06:50.062Z,3.33
2022-12-28T09:09:19.836Z,3.30
2022-12-28T09:11:47.591Z,3.20
2022-12-28T09:14:22.585Z,2.80
2022-12-28T09:16:52.008Z,4.20
2022-12-28T09:19:22.093Z,4.30
2022-12-28T09:21:52.400Z,3.03
2022-12-28T09:24:22.236Z,3.20
2022-12-28T09:26:52.674Z,4.00
2022-12-28T09:29:22.858Z,3.50
2022-12-28T09:31:49.781Z,2.97
2022-12-28T09:34:36.301Z,3.63
2022-12-28T09:37:06.608Z,3.60
2022-12-28T09:39:36.057Z,3.17
2022-12-28T09:42:38.035Z,2.90
2022-12-28T09:45:13.971Z,2.60
2022-12-28T09:47:56.085Z,3.53
2022-12-28T09:50:30.218Z,2.97
2022-12-28T09:53:19.754Z,3.70
2022-12-28T09:56:39.939Z,3.20
2022-12-28T09:59:08.631Z,3.07
2022-12-28T10:01:42.476Z,3.20
2022-12-28T10:04:12.324Z,2.97
2022-12-28T10:06:43.679Z,2.87
2022-12-28T10:09:26.624Z,2.67
2022-12-28T10:11:53.930Z,2.70
2022-12-28T10:14:34.535Z,2.73
2022-12-28T10:17:06.421Z,2.60
2022-12-28T10:19:33.325Z,2.87
2022-12-28T10:22:12.275Z,3.73
2022-12-28T10:24:40.361Z,4.03
2022-12-28T10:27:13.757Z,3.40
2022-12-28T10:29:41.696Z,3.33
2022-12-28T10:32:14.220Z,2.70
2022-12-28T10:35:00.411Z,2.70
2022-12-28T10:37:31.650Z,3.70
2022-12-28T10:40:09.516Z,4.27
2022-12-28T10:42:43.880Z,5.17
2022-12-28T10:45:48.570Z,3.53
2022-12-28T10:48:23.267Z,2.90
2022-12-28T10:50:57.714Z,2.77
2022-12-28T10:53:32.879Z,2.63
2022-12-28T10:56:13.697Z,4.00
2022-12-28T10:58:46.441Z,4.20
2022-12-28T11:01:13.558Z,2.93
2022-12-28T11:03:58.747Z,3.27
2022-12-28T11:06:33.008Z,2.47
2022-12-28T11:09:22.249Z,3.30
2022-12-28T11:11:55.987Z,2.60
2022-12-28T11:14:35.470Z,2.80
2022-12-28T11:17:28.128Z,3.73
2022-12-28T11:20:18.606Z,2.73
2022-12-28T11:22:47.067Z,3.00
2022-12-28T11:25:24.418Z,4.10
2022-12-28T11:27:51.533Z,3.20
2022-12-28T11:30:22.152Z,2.70
2022-12-28T11:33:01.390Z,2.37
2022-12-28T11:35:37.008Z,2.90
2022-12-28T11:38:07.589Z,2.90
2022-12-28T11:40:43.733Z,1.87
2022-12-28T11:43:29.268Z,2.80
2022-12-28T11:45:57.357Z,2.70
2022-12-28T11:48:42.947Z,3.00
2022-12-28T11:51:21.480Z,3.40
2022-12-28T11:53:58.375Z,3.03
2022-12-28T11:56:41.931Z,3.00
2022-12-28T11:59:25.762Z,2.60
2022-12-28T12:01:57.222Z,2.60
2022-12-28T12:04:42.909Z,8.50
2022-12-28T12:07:41.095Z,2.23
2022-12-28T12:10:34.101Z,2.60
2022-12-28T12:13:44.203Z,4.10
2022-12-28T12:16:40.225Z,3.70
2022-12-28T12:19:19.683Z,2.80
2022-12-28T12:21:59.796Z,4.00
2022-12-28T12:24:34.900Z,4.00
2022-12-28T12:27:13.373Z,2.83
2022-12-28T12:29:49.549Z,3.10
2022-12-28T12:32:48.180Z,2.70
2022-12-28T12:35:22.466Z,2.47
2022-12-28T12:38:03.877Z,2.50
2022-12-28T12:40:59.385Z,2.40
2022-12-28T12:44:07.265Z,2.70
2022-12-28T12:47:13.552Z,2.70
2022-12-28T12:50:02.257Z,2.30
2022-12-28T12:53:05.093Z,2.80
2022-12-28T12:56:14.326Z,3.07
2022-12-28T12:59:31.603Z,2.53
2022-12-28T13:02:22.832Z,2.90
2022-12-28T13:04:50.571Z,2.63
2022-12-28T13:07:23.002Z,2.47
2022-12-28T13:09:53.422Z,3.43
2022-12-28T13:12:20.952Z,3.07
2022-12-28T13:15:02.878Z,2.90
2022-12-28T13:17:35.165Z,2.93
2022-12-28T13:20:21.412Z,2.90
2022-12-28T13:22:49.471Z,3.10
2022-12-28T13:25:34.545Z,3.20
2022-12-28T13:28:03.418Z,2.90
2022-12-28T13:30:32.865Z,3.87
2022-12-28T13:33:03.209Z,2.60
2022-12-28T13:35:34.458Z,3.27
2022-12-28T13:38:14.184Z,2.80
2022-12-28T13:40:51.720Z,2.83
2022-12-28T13:43:33.410Z,2.67
2022-12-28T13:46:11.018Z,2.50
2022-12-28T13:48:45.096Z,1.90
2022-12-28T13:51:17.957Z,2.60
2022-12-28T13:53:56.322Z,2.70
2022-12-28T13:56:26.360Z,1.90
2022-12-28T13:59:03.552Z,2.83
2022-12-28T14:01:42.790Z,2.40
2022-12-28T14:04:51.705Z,2.73
2022-12-28T14:07:17.468Z,2.20
2022-12-28T14:09:50.009Z,1.97
2022-12-28T14:12:17.951Z,2.13
2022-12-28T14:14:48.203Z,1.80
2022-12-28T14:17:15.542Z,1.70
2022-12-28T14:19:45.454Z,2.57
2022-12-28T14:22:32.842Z,2.33
2022-12-28T14:25:09.005Z,2.57
2022-12-28T14:27:56.956Z,2.77
2022-12-28T14:30:31.343Z,2.60
2022-12-28T14:33:15.228Z,2.80
2022-12-28T14:36:01.840Z,2.77
2022-12-28T14:38:45.940Z,2.80
2022-12-28T14:41:27.534Z,2.80
2022-12-28T14:43:58.601Z,3.00
2022-12-28T14:46:38.340Z,2.40
2022-12-28T14:49:30.137Z,2.80
2022-12-28T14:52:11.864Z,2.80
2022-12-28T14:54:47.453Z,2.60
2022-12-28T14:57:40.109Z,2.67
2022-12-28T15:00:36.279Z,2.50
2022-12-28T15:03:22.236Z,2.50
2022-12-28T15:05:54.549Z,2.70
2022-12-28T15:08:23.067Z,2.20
2022-12-28T15:11:00.366Z,3.37
2022-12-28T15:13:27.665Z,3.30
2022-12-28T15:16:00.393Z,3.33
2022-12-28T15:18:29.463Z,4.00
2022-12-28T15:20:57.023Z,2.73
2022-12-28T15:23:29.721Z,3.40
2022-12-28T15:26:01.325Z,2.27
2022-12-28T15:28:28.296Z,2.83
2022-12-28T15:30:55.396Z,2.80
2022-12-28T15:33:22.323Z,3.40
2022-12-28T15:35:49.213Z,2.90
2022-12-28T15:38:16.120Z,2.80
2022-12-28T15:40:45.591Z,3.27
2022-12-28T15:43:15.579Z,2.90
2022-12-28T15:45:44.887Z,2.47
2022-12-28T15:48:11.963Z,3.13
2022-12-28T15:50:38.931Z,2.30
2022-12-28T15:53:06.251Z,2.43
2022-12-28T15:55:37.747Z,2.50
2022-12-28T15:58:07.170Z,2.80
2022-12-28T16:00:34.110Z,3.17
2022-12-28T16:03:02.019Z,2.63
2022-12-28T16:05:29.443Z,2.93
2022-12-28T16:07:59.014Z,3.63
2022-12-28T16:10:30.878Z,3.40
2022-12-28T16:13:00.148Z,4.00
2022-12-28T16:15:28.198Z,4.50
2022-12-28T16:17:57.452Z,4.80
2022-12-28T16:20:24.643Z,4.53
2022-12-28T16:22:53.681Z,4.80
2022-12-28T16:25:20.691Z,4.90
2022-12-28T16:27:50.710Z,4.83
2022-12-28T16:30:20.332Z,5.10
2022-12-28T16:32:49.704Z,4.40
2022-12-28T16:35:16.787Z,4.10
2022-12-28T16:37:51.206Z,8.00
2022-12-28T16:40:18.038Z,4.20
2022-12-28T16:42:45.909Z,4.70
2022-12-28T16:45:13.200Z,4.70
2022-12-28T16:47:45.722Z,5.90
2022-12-28T16:50:12.990Z,6.10
2022-12-28T16:52:42.455Z,5.30
2022-12-28T16:55:09.628Z,5.60
2022-12-28T16:57:38.880Z,4.50
2022-12-28T17:00:07.029Z,3.47
2022-12-28T17:02:38.644Z,3.73
2022-12-28T17:05:10.758Z,4.00
2022-12-28T17:07:37.667Z,3.77
2022-12-28T17:10:05.334Z,3.73
2022-12-28T17:12:32.282Z,3.60
2022-12-28T17:15:05.055Z,4.93
2022-12-28T17:17:34.926Z,4.43
2022-12-28T17:20:02.220Z,7.20
2022-12-28T17:22:29.360Z,6.17
2022-12-28T17:25:11.695Z,4.50
2022-12-28T17:27:38.746Z,4.43
2022-12-28T17:30:06.190Z,4.33
2022-12-28T17:32:34.149Z,5.00
2022-12-28T17:35:01.517Z,4.53
2022-12-28T17:37:28.457Z,3.70
2022-12-28T17:39:56.260Z,4.33
2022-12-28T17:42:23.201Z,5.43
2022-12-28T17:44:52.752Z,5.17
2022-12-28T17:47:19.787Z,6.10
2022-12-28T17:49:48.886Z,5.80
2022-12-28T17:52:20.201Z,5.00
2022-12-28T17:54:47.948Z,4.53
2022-12-28T17:57:18.383Z,4.87
2022-12-28T17:59:45.849Z,5.20
2022-12-28T18:02:15.476Z,4.03
2022-12-28T18:04:44.944Z,4.60
2022-12-28T18:07:13.897Z,4.50
2022-12-28T18:09:40.903Z,4.17
2022-12-28T18:12:07.837Z,3.97
2022-12-28T18:14:35.061Z,3.63
2022-12-28T18:17:02.142Z,3.80
2022-12-28T18:19:31.804Z,4.33
2022-12-28T18:22:00.732Z,3.90
2022-12-28T18:24:28.853Z,6.40
2022-12-28T18:26:58.306Z,4.53
2022-12-28T18:29:25.160Z,4.60
2022-12-28T18:31:52.286Z,4.03
2022-12-28T18:34:21.409Z,4.13
2022-12-28T18:36:48.718Z,3.70
2022-12-28T18:39:20.402Z,4.67
2022-12-28T18:41:47.337Z,3.57
2022-12-28T18:44:14.541Z,3.50
2022-12-28T18:46:41.684Z,3.60
2022-12-28T18:49:11.115Z,3.93
2022-12-28T18:51:40.805Z,2.90
2022-12-28T18:54:12.942Z,3.67
2022-12-28T18:56:42.131Z,3.30
2022-12-28T18:59:11.408Z,3.33
2022-12-28T19:02:06.015Z,3.20
2022-12-28T19:04:29.371Z,2.80
2022-12-28T19:06:56.923Z,2.00
2022-12-28T19:09:26.175Z,2.00
2022-12-28T19:11:55.864Z,2.67
2022-12-28T19:14:22.934Z,2.13
2022-12-28T19:16:50.059Z,2.50
2022-12-28T19:19:17.902Z,2.40
2022-12-28T19:21:47.738Z,2.40
2022-12-28T19:24:18.772Z,1.90
2022-12-28T19:26:47.363Z,2.20
2022-12-28T19:29:15.683Z,2.00
2022-12-28T19:31:45.445Z,2.00
2022-12-28T19:34:17.484Z,1.97
2022-12-28T19:36:44.459Z,2.20
2022-12-28T19:39:11.553Z,1.47
2022-12-28T19:41:40.957Z,1.60
2022-12-28T19:44:07.853Z,2.00
2022-12-28T19:46:38.171Z,2.50
2022-12-28T19:49:06.461Z,1.67
2022-12-28T19:51:35.372Z,1.70
2022-12-28T19:54:09.381Z,1.73
2022-12-28T19:56:40.935Z,2.07
2022-12-28T19:59:11.981Z,1.60
2022-12-28T20:01:39.539Z,2.07
2022-12-28T20:04:16.298Z,1.80
2022-12-28T20:06:48.865Z,1.63
2022-12-28T20:09:20.369Z,1.60
2022-12-28T20:11:54.332Z,2.10
2022-12-28T20:14:25.400Z,2.13
2022-12-28T20:16:56.829Z,2.47
2022-12-28T20:19:30.549Z,2.10
2022-12-28T20:21:58.768Z,1.93
2022-12-28T20:24:30.168Z,2.30
2022-12-28T20:27:01.444Z,2.27
2022-12-28T20:29:35.460Z,2.43
2022-12-28T20:32:08.603Z,2.00
2022-12-28T20:34:40.074Z,2.30
2022-12-28T20:37:10.779Z,1.90
2022-12-28T20:39:42.741Z,2.17
2022-12-28T20:42:37.385Z,2.40
2022-12-28T20:45:05.574Z,2.17
2022-12-28T20:47:35.579Z,2.67
2022-12-28T20:50:04.890Z,2.30
2022-12-28T20:52:34.558Z,2.30
2022-12-28T20:55:01.652Z,2.67
2022-12-28T20:57:28.751Z,2.50
2022-12-28T20:59:59.226Z,2.60
2022-12-28T21:02:26.334Z,2.70
2022-12-28T21:04:53.336Z,2.50
2022-12-28T21:07:20.406Z,2.50
2022-12-28T21:09:50.771Z,2.80
2022-12-28T21:12:17.863Z,2.50
2022-12-28T21:14:49.482Z,3.23
2022-12-28T21:17:18.859Z,2.87
2022-12-28T21:19:51.258Z,2.70
2022-12-28T21:22:20.740Z,3.20
2022-12-28T21:24:47.813Z,3.03
2022-12-28T21:27:15.230Z,3.27
2022-12-28T21:29:47.131Z,3.10
2022-12-28T21:32:19.762Z,3.30
2022-12-28T21:34:46.714Z,3.10
2022-12-28T21:37:32.462Z,2.90
2022-12-28T21:40:01.767Z,3.60
2022-12-28T21:42:28.916Z,3.00
2022-12-28T21:44:56.244Z,3.00
2022-12-28T21:47:23.318Z,3.30
2022-12-28T21:49:50.533Z,2.90
2022-12-28T21:52:17.732Z,3.30
2022-12-28T21:54:44.895Z,3.17
2022-12-28T21:57:15.014Z,3.03
2022-12-28T21:59:42.703Z,2.47
2022-12-28T22:02:46.955Z,2.90
2022-12-28T22:05:33.137Z,2.67
2022-12-28T22:08:22.731Z,3.30
2022-12-28T22:11:08.051Z,2.97
2022-12-28T22:13:35.055Z,2.93
2022-12-28T22:16:02.182Z,2.87
2022-12-28T22:19:00.323Z,2.60
2022-12-28T22:21:15.953Z,3.00
2022-12-28T22:23:42.902Z,2.93
2022-12-28T22:26:14.897Z,2.70
2022-12-28T22:28:41.934Z,3.47
2022-12-28T22:31:14.094Z,3.47
2022-12-28T22:33:43.500Z,3.20
2022-12-28T22:36:18.887Z,2.90
2022-12-28T22:38:51.042Z,2.70
2022-12-28T22:41:17.998Z,3.13
2022-12-28T22:43:53.364Z,2.73
2022-12-28T22:46:22.558Z,3.00
2022-12-28T22:48:50.959Z,3.33
2022-12-28T22:51:20.369Z,3.10
2022-12-28T22:53:52.382Z,2.63
2022-12-28T22:56:20.969Z,3.00
2022-12-28T22:58:48.983Z,2.90
2022-12-28T23:01:19.448Z,3.00
2022-12-28T23:03:50.213Z,2.80
2022-12-28T23:06:22.276Z,2.90
2022-12-28T23:08:49.218Z,2.83
2022-12-28T23:11:36.627Z,3.17
2022-12-28T23:14:24.234Z,3.17
2022-12-28T23:16:51.440Z,2.80
2022-12-28T23:19:37.983Z,2.80
2022-12-28T23:22:30.062Z,2.77
2022-12-28T23:25:15.365Z,2.50
2022-12-28T23:27:44.838Z,3.30
2022-12-28T23:30:17.625Z,2.70
2022-12-28T23:32:50.405Z,3.10
2022-12-28T23:35:19.310Z,3.17
2022-12-28T23:37:48.850Z,3.10
2022-12-28T23:40:20.905Z,2.87
2022-12-28T23:42:53.239Z,2.60
2022-12-28T23:45:20.568Z,3.23
2022-12-28T23:47:53.587Z,2.80
2022-12-28T23:50:23.002Z,2.67
2022-12-28T23:52:49.896Z,2.67
2022-12-28T23:55:17.219Z,2.80
2022-12-28T23:57:44.031Z,2.90
